Bookmark and Share
Track history (hours):
 

Ever Delight

Last reported at 2014-Apr-12 23:15 UTC. Time now 2014-Apr-19 01:59 UTC.
Position N 35°08' E 140°42'.

Type: Cargo ship. MMSI: 351936000.

NotesDate/timePositionNaut miles runAvg speedWind from/ knotsBaromVisibWave heightAir tempDewpointWater temp
2014-Apr-12 23:15N 35°08' E 140°42'1418.3
2014-Apr-12 22:28N 35°01' E 140°27'1617.9
2014-Apr-12 21:33N 34°53' E 140°10'1918.1
2014-Apr-12 20:32N 34°44' E 139°50'  
2014-Apr-10 12:28N 26°31' E 123°00'1717.7
2014-Apr-10 11:30N 26°22' E 122°44'25816.2
2014-Apr-09 19:33N 22°52' E 119°59'1818.0
2014-Apr-09 18:33N 22°36' E 120°09'1110.8
2014-Apr-09 17:33N 22°33' E 120°20'0 0.1
2014-Apr-09 14:11N 22°33' E 120°20'0 0.0
2014-Apr-09 10:17N 22°33' E 120°20'0 0.0
2014-Apr-09 07:17N 22°33' E 120°20'0 0.0
2014-Apr-09 06:04N 22°33' E 120°20'0 0.0
2014-Apr-09 05:31N 22°33' E 120°20'0 0.0
2014-Apr-09 04:33N 22°33' E 120°20'0 0.0
2014-Apr-09 03:33N 22°33' E 120°20'0 0.0
2014-Apr-09 02:34N 22°33' E 120°20'0 0.0
2014-Apr-09 01:34N 22°33' E 120°20'0 0.2
2014-Apr-09 00:34N 22°33' E 120°20'5 4.5
2014-Apr-08 23:33N 22°32' E 120°15'6 5.8
2014-Apr-08 22:33N 22°31' E 120°09'3 3.2
2014-Apr-08 21:34N 22°31' E 120°05'2 2.2
2014-Apr-08 20:33N 22°31' E 120°03'7 7.2
2014-Apr-08 19:33N 22°31' E 119°55'3 2.9
2014-Apr-08 18:34N 22°31' E 119°52'1 0.9
2014-Apr-08 17:34N 22°31' E 119°53'1 1.0
2014-Apr-08 16:32N 22°31' E 119°54'1 0.9
2014-Apr-08 15:33N 22°31' E 119°55'1 0.9
2014-Apr-08 14:34N 22°32' E 119°56'1 1.0
2014-Apr-08 13:33N 22°33' E 119°56'1 1.1
2014-Apr-08 12:33N 22°34' E 119°57'3 2.9
2014-Apr-08 11:33N 22°32' E 119°54'1514.9
2014-Apr-08 10:33N 22°29' E 119°38'29714.0
2014-Apr-07 13:20N 22°34' E 114°17'1 1.8
2014-Apr-07 12:33N 22°34' E 114°16'0 0.0
2014-Apr-07 11:33N 22°34' E 114°16'0 0.0
2014-Apr-07 10:33N 22°34' E 114°16'0 0.0
2014-Apr-07 09:33N 22°34' E 114°16'0 0.0
2014-Apr-07 08:33N 22°34' E 114°16'0 0.0
2014-Apr-07 07:33N 22°34' E 114°16'0 0.0
2014-Apr-07 06:33N 22°34' E 114°16'0 0.1
2014-Apr-07 05:33N 22°34' E 114°16'0 0.1
2014-Apr-07 04:32N 22°34' E 114°16'0 0.0
2014-Apr-07 03:33N 22°34' E 114°16'0 0.0
2014-Apr-07 02:33N 22°34' E 114°16'0 0.0
2014-Apr-07 01:33N 22°34' E 114°16'0 0.0
2014-Apr-07 00:33N 22°34' E 114°16'0 0.0
2014-Apr-06 23:33N 22°34' E 114°16'17 3.4
2014-Apr-06 18:33N 22°20' E 114°07'1 0.5
2014-Apr-06 17:29N 22°20' E 114°08'0 0.0
2014-Apr-06 16:29N 22°20' E 114°08'0 0.0
2014-Apr-06 14:11N 22°20' E 114°08'0 0.0
2014-Apr-06 10:11N 22°20' E 114°08'0 0.0
2014-Apr-06 09:23N 22°20' E 114°08'0 0.0
2014-Apr-06 08:11N 22°20' E 114°08'0 0.0
2014-Apr-06 06:29N 22°20' E 114°08'0 0.0
2014-Apr-06 05:29N 22°20' E 114°08'0 0.0
2014-Apr-06 04:32N 22°20' E 114°08'10 7.0
2014-Apr-06 03:03N 22°10' E 114°12'38 3.5
2014-Apr-05 16:08N 22°06' E 114°54'1 1.3
2014-Apr-05 15:30N 22°06' E 114°54'7310.1
2014-Apr-05 08:18N 22°26' E 116°09'1815.2
2014-Apr-05 07:08N 22°35' E 116°26'1214.7
2014-Apr-05 06:19N 22°41' E 116°37'1114.5
2014-Apr-05 05:33N 22°46' E 116°48'2114.5
2014-Apr-05 04:05N 22°57' E 117°08'2815.2
2014-Apr-05 02:16N 23°10' E 117°34'1318.3
2014-Apr-05 01:33N 23°16' E 117°47'1818.5
2014-Apr-05 00:34N 23°25' E 118°04'2018.7
2014-Apr-04 23:30N 23°36' E 118°22'1918.5
2014-Apr-04 22:29N 23°47' E 118°39'1718.5
2014-Apr-04 21:33N 23°57' E 118°55'2318.0
2014-Apr-04 20:17N 24°09' E 119°16'1418.0
2014-Apr-04 19:31N 24°17' E 119°28'  

Dump ship's entire track history

sailing weather and tide predictions

Ever Delight — 3FCB8 — position and weather